Airfield :







YOU CAN JOIN US ON...

 
LOGIN :

Register | Disclaimer

   EN    FR    IT 

 









Legend :    VFR   Marginal VFR   IFR   Intensive IFR   Very Intensive IFR
Visi :
Ceiling :
>= 8 km
>= 3000ft
5 to 8 km
1000 to 3000 ft
1500m to 5 km
500 to 1000 ft
800 to 1500m
200 to 500 ft
< 800m
< 200 ft
Symbols :   Thunderstorms  Fog  Heavy snow  Heavy precipitations  Wind > 20 kt






- Airport Elevation : 141 ft
- IATA code : YQI


CYQI - Yarmouth

CURRENT METAR :
  • 200800Z 32004KT 15SM SKC 05/02 A3003 RMK SLP170

EXPIRED METARs :
  • 200700Z 35005KT 15SM SKC 06/02 A3002 RMK SLP167
  • 200600Z 35003KT 15SM FEW049 06/03 A3001 RMK SC1 SC TR SLP165

TAF TAF CYQI
Valid from the 20 at 06:00 until the 20 at 18:00 UTC


200539Z 2006/2018 35005KT P6SM FEW050
BECMG 2012/2014 31010KT RMK NXT FCST BY 201200Z



MET'MAP, your aeronautical weather chart ! - Copyright ORBIFLY December 2007 - Disclaimer

ORBIFLY MET'MAP TEAM :

Programming & Development : Alexandra Zaïnal
Concept & Development : Baudouin d'Aumeries
Co-Development & Prog : Marc-Olivier Méhu
Technical & hardware support : Manuel Goepfert

Contact : metmap@orbifly.com




SOURCES & CREDITS :

   NOAA